createdAt,value
2022-08-17T00:00:04.431Z,79.96
2022-08-17T00:00:49.404Z,79.05
2022-08-17T00:01:05.817Z,79.05
2022-08-17T00:01:51.300Z,79.55
2022-08-17T00:02:22.459Z,79.75
2022-08-17T00:02:43.135Z,80.16
2022-08-17T00:03:08.840Z,80.06
2022-08-17T00:03:39.592Z,79.66
2022-08-17T00:04:11.861Z,79.86
2022-08-17T00:04:40.965Z,79.96
2022-08-17T00:05:11.545Z,79.75
2022-08-17T00:05:41.288Z,80.06
2022-08-17T00:06:12.073Z,80.16
2022-08-17T00:06:43.666Z,81.07
2022-08-17T00:07:13.191Z,80.57
2022-08-17T00:07:43.977Z,80.00
2022-08-17T00:08:15.550Z,80.00
2022-08-17T00:08:46.122Z,80.00
2022-08-17T00:09:18.755Z,80.40
2022-08-17T00:09:47.209Z,80.40
2022-08-17T00:10:17.221Z,80.50
2022-08-17T00:10:48.003Z,80.50
2022-08-17T00:11:19.816Z,80.80
2022-08-17T00:12:34.982Z,80.10
2022-08-17T00:12:43.357Z,80.00
2022-08-17T00:12:52.350Z,80.10
2022-08-17T00:13:21.657Z,80.20
2022-08-17T00:13:56.034Z,80.80
2022-08-17T00:14:24.253Z,81.21
2022-08-17T00:14:53.996Z,81.62
2022-08-17T00:15:25.902Z,81.51
2022-08-17T00:15:56.456Z,81.31
2022-08-17T00:16:56.403Z,81.21
2022-08-17T00:16:57.856Z,81.11
2022-08-17T00:17:27.602Z,81.71
2022-08-17T00:17:59.422Z,82.32
2022-08-17T00:19:01.956Z,81.71
2022-08-17T00:19:07.719Z,80.91
2022-08-17T00:19:31.553Z,80.71
2022-08-17T00:20:01.298Z,80.71
2022-08-17T00:20:34.718Z,81.51
2022-08-17T00:21:04.905Z,81.51
2022-08-17T00:22:29.865Z,81.35
2022-08-17T00:22:34.309Z,80.64
2022-08-17T00:22:36.891Z,80.44
2022-08-17T00:23:06.203Z,80.44
2022-08-17T00:23:36.981Z,81.05
2022-08-17T00:24:07.741Z,81.35
2022-08-17T00:24:38.526Z,81.96
2022-08-17T00:25:10.096Z,80.94
2022-08-17T00:25:39.834Z,80.94
2022-08-17T00:26:14.280Z,81.15
2022-08-17T00:26:44.329Z,81.39
2022-08-17T00:27:13.353Z,82.16
2022-08-17T00:27:43.915Z,82.46
2022-08-17T00:28:14.461Z,81.35
2022-08-17T00:28:45.041Z,81.25
2022-08-17T00:29:14.986Z,81.96
2022-08-17T00:29:46.644Z,82.36
2022-08-17T00:30:16.381Z,82.56
2022-08-17T00:30:50.890Z,82.56
2022-08-17T00:31:19.910Z,82.06
2022-08-17T00:31:49.513Z,82.46
2022-08-17T00:33:12.226Z,82.06
2022-08-17T00:33:21.604Z,82.87
2022-08-17T00:33:22.993Z,82.06
2022-08-17T00:33:52.162Z,82.06
2022-08-17T00:34:22.771Z,81.96
2022-08-17T00:34:53.549Z,82.16
2022-08-17T00:35:24.325Z,82.46
2022-08-17T00:35:54.079Z,82.67
2022-08-17T00:36:24.888Z,82.46
2022-08-17T00:36:56.485Z,82.26
2022-08-17T00:37:27.056Z,82.36
2022-08-17T00:37:57.618Z,82.46
2022-08-17T00:38:28.186Z,81.85
2022-08-17T00:38:58.772Z,82.06
2022-08-17T00:39:28.586Z,82.16
2022-08-17T00:40:00.324Z,81.55
2022-08-17T00:40:39.753Z,81.76
2022-08-17T00:41:01.742Z,82.06
2022-08-17T00:41:31.485Z,81.85
2022-08-17T00:42:03.334Z,81.35
2022-08-17T00:42:34.132Z,82.46
2022-08-17T00:43:03.894Z,82.16
2022-08-17T00:43:35.463Z,81.76
2022-08-17T00:44:06.041Z,80.94
2022-08-17T00:44:35.774Z,81.05
2022-08-17T00:45:06.597Z,81.45
2022-08-17T00:45:37.386Z,82.16
2022-08-17T00:46:08.177Z,82.97
2022-08-17T00:46:40.000Z,82.16
2022-08-17T00:47:10.572Z,82.26
2022-08-17T00:47:40.609Z,82.16
2022-08-17T00:48:23.759Z,81.76
2022-08-17T00:48:43.222Z,81.35
2022-08-17T00:49:12.970Z,80.94
2022-08-17T00:49:44.577Z,80.84
2022-08-17T00:50:14.332Z,81.25
2022-08-17T00:50:45.126Z,81.55
2022-08-17T00:51:15.935Z,81.85
2022-08-17T00:51:47.556Z,82.26
2022-08-17T00:52:18.101Z,82.26
2022-08-17T00:52:47.853Z,82.56
2022-08-17T00:53:19.453Z,82.26
2022-08-17T00:53:50.007Z,82.36
2022-08-17T00:54:20.543Z,81.96
2022-08-17T00:54:51.081Z,82.06
2022-08-17T00:55:21.629Z,81.45
2022-08-17T00:55:51.378Z,81.35
2022-08-17T00:56:22.978Z,81.45
2022-08-17T00:56:53.519Z,82.06
2022-08-17T00:57:24.094Z,82.36
2022-08-17T00:57:55.533Z,82.06
2022-08-17T00:58:35.860Z,81.96
2022-08-17T00:58:56.358Z,82.26
2022-08-17T00:59:26.107Z,81.85
2022-08-17T01:00:02.995Z,81.85
2022-08-17T01:00:28.469Z,81.76
2022-08-17T01:00:58.265Z,81.76
2022-08-17T01:01:29.945Z,82.16
2022-08-17T01:02:00.540Z,82.97
2022-08-17T01:02:40.391Z,82.87
2022-08-17T01:03:01.917Z,82.26
2022-08-17T01:03:31.659Z,81.96
2022-08-17T01:04:03.240Z,81.76
2022-08-17T01:04:32.984Z,82.06
2022-08-17T01:05:04.591Z,82.06
2022-08-17T01:05:35.366Z,82.06
2022-08-17T01:06:05.923Z,82.46
2022-08-17T01:06:35.738Z,82.46
2022-08-17T01:07:07.580Z,82.06
2022-08-17T01:07:38.054Z,82.06
2022-08-17T01:08:09.210Z,81.96
2022-08-17T01:08:38.949Z,81.76
2022-08-17T01:09:10.576Z,82.06
2022-08-17T01:09:40.321Z,81.76
2022-08-17T01:10:57.305Z,82.06
2022-08-17T01:10:58.996Z,82.16
2022-08-17T01:11:13.464Z,82.36
2022-08-17T01:11:44.009Z,82.67
2022-08-17T01:12:13.788Z,82.70
2022-08-17T01:12:44.318Z,82.16
2022-08-17T01:13:15.111Z,81.99
2022-08-17T01:13:46.721Z,81.96
2022-08-17T01:14:16.737Z,81.65
2022-08-17T01:14:47.516Z,81.55
2022-08-17T01:15:19.131Z,81.85
2022-08-17T01:15:49.897Z,82.56
2022-08-17T01:16:19.631Z,82.16
2022-08-17T01:16:51.233Z,82.16
2022-08-17T01:17:21.992Z,81.76
2022-08-17T01:17:52.530Z,81.76
2022-08-17T01:18:22.552Z,81.45
2022-08-17T01:18:54.130Z,81.15
2022-08-17T01:19:23.848Z,80.88
2022-08-17T01:19:55.421Z,81.39
2022-08-17T01:20:26.010Z,81.59
2022-08-17T01:20:56.578Z,81.59
2022-08-17T01:21:26.312Z,80.88
2022-08-17T01:21:58.140Z,80.88
2022-08-17T01:22:28.917Z,81.05
2022-08-17T01:22:59.494Z,80.88
2022-08-17T01:23:30.029Z,80.98
2022-08-17T01:23:59.770Z,80.88
2022-08-17T01:24:31.380Z,81.59
2022-08-17T01:25:02.314Z,81.18
2022-08-17T01:25:32.891Z,81.29
2022-08-17T01:26:02.644Z,81.29
2022-08-17T01:26:33.434Z,81.18
2022-08-17T01:27:10.250Z,81.18
2022-08-17T01:27:35.804Z,80.98
2022-08-17T01:28:06.354Z,81.09
2022-08-17T01:28:54.767Z,81.09
2022-08-17T01:29:07.655Z,81.18
2022-08-17T01:29:38.205Z,81.39
2022-08-17T01:30:57.108Z,81.69
2022-08-17T01:30:57.376Z,81.79
2022-08-17T01:31:10.317Z,81.79
2022-08-17T01:31:40.848Z,82.20
2022-08-17T01:32:11.406Z,82.50
2022-08-17T01:32:42.016Z,81.90
2022-08-17T01:33:12.554Z,81.90
2022-08-17T01:33:43.095Z,81.59
2022-08-17T01:34:13.663Z,81.73
2022-08-17T01:34:50.182Z,82.14
2022-08-17T01:35:15.018Z,82.44
2022-08-17T01:35:45.562Z,82.95
2022-08-17T01:36:15.320Z,83.55
2022-08-17T01:36:47.040Z,82.44
2022-08-17T01:37:17.590Z,82.54
2022-08-17T01:37:48.157Z,82.75
2022-08-17T01:38:18.750Z,82.24
2022-08-17T01:38:49.526Z,82.14
2022-08-17T01:39:20.114Z,81.73
2022-08-17T01:39:50.916Z,82.34
2022-08-17T01:40:21.450Z,82.75
2022-08-17T01:40:57.014Z,82.95
2022-08-17T01:41:22.792Z,82.44
2022-08-17T01:41:53.399Z,82.44
2022-08-17T01:42:23.961Z,82.24
2022-08-17T01:42:54.530Z,82.24
2022-08-17T01:43:25.087Z,82.14
2022-08-17T01:43:54.826Z,82.44
2022-08-17T01:44:26.455Z,82.14
2022-08-17T01:44:57.136Z,82.03
2022-08-17T01:45:27.702Z,82.54
2022-08-17T01:46:02.756Z,82.75
2022-08-17T01:46:29.070Z,82.24
2022-08-17T01:46:59.620Z,82.14
2022-08-17T01:47:29.845Z,82.03
2022-08-17T01:47:59.805Z,82.24
2022-08-17T01:48:31.419Z,82.44
2022-08-17T01:49:01.988Z,82.34
2022-08-17T01:49:31.742Z,82.48
2022-08-17T01:50:03.563Z,83.09
2022-08-17T01:50:34.346Z,83.39
2022-08-17T01:51:06.255Z,82.89
2022-08-17T01:51:35.926Z,83.09
2022-08-17T01:52:06.489Z,83.18
2022-08-17T01:52:37.079Z,83.49
2022-08-17T01:53:06.827Z,83.90
2022-08-17T01:53:38.393Z,83.90
2022-08-17T01:54:08.171Z,83.49
2022-08-17T01:54:38.958Z,83.09
2022-08-17T01:55:10.573Z,83.69
2022-08-17T01:55:40.309Z,83.49
2022-08-17T01:56:11.912Z,83.80
2022-08-17T01:56:47.084Z,83.69
2022-08-17T01:57:13.244Z,84.81
2022-08-17T01:57:44.046Z,84.10
2022-08-17T01:58:13.790Z,83.59
2022-08-17T01:58:45.373Z,83.80
2022-08-17T01:59:15.105Z,84.00
2022-08-17T01:59:46.929Z,83.80
2022-08-17T02:00:17.489Z,83.39
2022-08-17T02:01:00.924Z,82.78
2022-08-17T02:01:19.107Z,83.49
2022-08-17T02:01:49.703Z,83.39
2022-08-17T02:02:30.343Z,83.49
2022-08-17T02:02:51.278Z,83.09
2022-08-17T02:03:21.846Z,83.49
2022-08-17T02:03:53.386Z,83.49
2022-08-17T02:04:23.410Z,83.29
2022-08-17T02:04:53.963Z,83.49
2022-08-17T02:05:24.541Z,83.09
2022-08-17T02:05:55.099Z,82.98
2022-08-17T02:06:27.948Z,83.09
2022-08-17T02:06:56.729Z,82.68
2022-08-17T02:07:27.296Z,82.68
2022-08-17T02:08:00.376Z,82.58
2022-08-17T02:08:38.804Z,82.68
2022-08-17T02:09:03.039Z,82.68
2022-08-17T02:09:29.717Z,82.82
2022-08-17T02:10:01.156Z,82.82
2022-08-17T02:10:34.078Z,82.82
2022-08-17T02:11:02.249Z,83.33
2022-08-17T02:11:32.805Z,83.63
2022-08-17T02:12:37.939Z,84.14
2022-08-17T02:12:37.991Z,84.04
2022-08-17T02:13:05.160Z,84.04
2022-08-17T02:13:34.897Z,84.04
2022-08-17T02:14:06.718Z,84.24
2022-08-17T02:14:37.253Z,84.34
2022-08-17T02:15:07.022Z,83.83
2022-08-17T02:15:37.958Z,84.14
2022-08-17T02:16:08.744Z,84.55
2022-08-17T02:16:40.340Z,84.91
2022-08-17T02:17:10.042Z,85.21
2022-08-17T02:17:41.710Z,84.70
2022-08-17T02:18:11.454Z,84.70
2022-08-17T02:18:42.239Z,84.61
2022-08-17T02:19:12.756Z,84.00
2022-08-17T02:19:43.552Z,84.20
2022-08-17T02:20:14.341Z,83.69
2022-08-17T02:20:45.955Z,83.29
2022-08-17T02:21:15.949Z,83.29
2022-08-17T02:21:47.568Z,84.00
2022-08-17T02:22:18.156Z,84.70
2022-08-17T02:22:48.954Z,84.61
2022-08-17T02:23:18.221Z,83.69
2022-08-17T02:23:49.002Z,83.29
2022-08-17T02:24:59.607Z,84.24
2022-08-17T02:25:00.095Z,83.59
2022-08-17T02:25:22.181Z,84.24
2022-08-17T02:25:52.723Z,83.59
2022-08-17T02:26:24.184Z,83.69
2022-08-17T02:26:53.022Z,83.69
2022-08-17T02:27:24.644Z,83.59
2022-08-17T02:27:54.391Z,83.59
2022-08-17T02:28:25.175Z,83.90
2022-08-17T02:28:55.703Z,83.09
2022-08-17T02:29:27.328Z,82.98
2022-08-17T02:29:57.859Z,83.29
2022-08-17T02:30:50.216Z,83.80
2022-08-17T02:31:03.195Z,83.59
2022-08-17T02:31:29.753Z,83.90
2022-08-17T02:31:59.496Z,83.49
2022-08-17T02:32:30.286Z,83.90
2022-08-17T02:33:04.217Z,83.80
2022-08-17T02:33:42.592Z,83.49
2022-08-17T02:34:05.147Z,84.14
2022-08-17T02:34:33.090Z,83.94
2022-08-17T02:35:04.696Z,83.83
2022-08-17T02:35:34.457Z,83.83
2022-08-17T02:36:06.072Z,84.04
2022-08-17T02:36:36.633Z,84.34
2022-08-17T02:37:07.207Z,84.14
2022-08-17T02:37:37.990Z,83.94
2022-08-17T02:38:07.723Z,84.14
2022-08-17T02:38:38.525Z,83.94
2022-08-17T02:39:10.343Z,84.14
2022-08-17T02:39:40.955Z,83.94
2022-08-17T02:40:10.825Z,83.83
2022-08-17T02:40:42.462Z,83.83
2022-08-17T02:41:13.134Z,84.04
2022-08-17T02:41:42.878Z,83.39
2022-08-17T02:42:14.495Z,83.80
2022-08-17T02:42:45.105Z,83.80
2022-08-17T02:43:15.676Z,83.69
2022-08-17T02:43:46.226Z,83.69
2022-08-17T02:44:39.778Z,84.10
2022-08-17T02:44:47.564Z,84.34
2022-08-17T02:45:17.317Z,84.30
2022-08-17T02:45:48.104Z,84.50
2022-08-17T02:46:19.135Z,83.90
2022-08-17T02:46:50.732Z,84.30
2022-08-17T02:47:20.471Z,84.04
2022-08-17T02:47:52.087Z,83.69
2022-08-17T02:48:30.665Z,84.14
2022-08-17T02:48:53.646Z,84.55
2022-08-17T02:49:24.212Z,84.64
2022-08-17T02:49:55.760Z,84.24
2022-08-17T02:50:25.572Z,84.14
2022-08-17T02:50:55.319Z,83.90
2022-08-17T02:51:26.900Z,83.69
2022-08-17T02:51:57.673Z,83.39
2022-08-17T02:52:42.486Z,83.80
2022-08-17T02:53:02.558Z,84.04
2022-08-17T02:53:35.842Z,83.80
2022-08-17T02:54:35.765Z,83.90
2022-08-17T02:54:39.737Z,83.59
2022-08-17T02:55:02.117Z,83.39
2022-08-17T02:55:31.861Z,83.18
2022-08-17T02:56:02.683Z,83.18
2022-08-17T02:56:34.264Z,83.69
2022-08-17T02:57:04.018Z,83.90
2022-08-17T02:57:34.931Z,83.59
2022-08-17T02:58:06.534Z,83.39
2022-08-17T02:58:37.064Z,83.69
2022-08-17T02:59:07.644Z,83.59
2022-08-17T02:59:38.218Z,83.69
2022-08-17T03:00:07.961Z,83.80
2022-08-17T03:00:39.541Z,83.80
2022-08-17T03:01:10.396Z,83.80
2022-08-17T03:01:40.238Z,83.69
2022-08-17T03:02:11.068Z,83.69
2022-08-17T03:02:42.743Z,83.59
2022-08-17T03:03:13.464Z,83.90
2022-08-17T03:03:44.003Z,83.59
2022-08-17T03:04:14.579Z,84.30
2022-08-17T03:04:45.127Z,84.70
2022-08-17T03:05:15.655Z,84.34
2022-08-17T03:05:46.426Z,83.94
2022-08-17T03:06:16.979Z,83.83
2022-08-17T03:06:46.710Z,83.73
2022-08-17T03:07:18.356Z,83.94
2022-08-17T03:07:50.454Z,84.44
2022-08-17T03:08:18.866Z,84.44
2022-08-17T03:08:50.472Z,84.14
2022-08-17T03:09:20.203Z,84.34
2022-08-17T03:09:50.741Z,84.75
2022-08-17T03:10:21.274Z,84.55
2022-08-17T03:10:52.919Z,84.04
2022-08-17T03:11:23.543Z,83.63
2022-08-17T03:11:53.297Z,83.73
2022-08-17T03:12:25.025Z,84.14
2022-08-17T03:12:55.599Z,84.14
2022-08-17T03:13:26.175Z,84.55
2022-08-17T03:13:56.790Z,84.55
2022-08-17T03:14:26.534Z,84.55
2022-08-17T03:14:58.353Z,84.95
2022-08-17T03:15:28.876Z,84.48
2022-08-17T03:15:59.428Z,84.69
2022-08-17T03:16:29.173Z,84.69
2022-08-17T03:16:59.964Z,84.89
2022-08-17T03:17:31.593Z,84.48
2022-08-17T03:18:02.156Z,84.48
2022-08-17T03:18:32.679Z,84.99
2022-08-17T03:19:03.235Z,85.50
2022-08-17T03:19:33.817Z,86.21
2022-08-17T03:20:04.367Z,85.30
2022-08-17T03:20:34.943Z,84.89
2022-08-17T03:21:04.709Z,84.69
2022-08-17T03:21:35.498Z,85.39
2022-08-17T03:22:35.516Z,84.69
2022-08-17T03:22:48.018Z,84.38
2022-08-17T03:23:09.136Z,85.30
2022-08-17T03:23:39.675Z,86.00
2022-08-17T03:24:10.219Z,86.00
2022-08-17T03:24:40.144Z,84.58
2022-08-17T03:25:10.941Z,84.72
2022-08-17T03:25:42.535Z,85.44
2022-08-17T03:26:15.603Z,86.55
2022-08-17T03:26:44.242Z,86.55
2022-08-17T03:27:14.798Z,86.05
2022-08-17T03:27:45.386Z,85.33
2022-08-17T03:28:16.094Z,85.24
2022-08-17T03:28:46.677Z,85.53
2022-08-17T03:29:17.221Z,85.94
2022-08-17T03:29:46.967Z,85.94
2022-08-17T03:30:18.576Z,85.64
2022-08-17T03:30:48.382Z,86.05
2022-08-17T03:31:19.991Z,86.15
2022-08-17T03:31:50.541Z,85.84
2022-08-17T03:32:21.103Z,86.05
2022-08-17T03:32:51.934Z,86.45
2022-08-17T03:33:21.305Z,86.00
2022-08-17T03:33:52.083Z,85.74
2022-08-17T03:34:23.717Z,85.74
2022-08-17T03:34:53.490Z,85.19
2022-08-17T03:35:24.288Z,85.39
2022-08-17T03:35:56.114Z,85.74
2022-08-17T03:36:26.699Z,86.00
2022-08-17T03:36:56.441Z,85.94
2022-08-17T03:37:28.088Z,86.00
2022-08-17T03:38:00.718Z,85.60
2022-08-17T03:38:29.419Z,85.30
2022-08-17T03:39:00.177Z,85.39
2022-08-17T03:39:30.813Z,85.50
2022-08-17T03:40:01.414Z,86.15
2022-08-17T03:40:55.026Z,85.84
2022-08-17T03:41:02.754Z,85.74
2022-08-17T03:41:32.497Z,86.21
2022-08-17T03:42:02.983Z,86.61
2022-08-17T03:42:34.538Z,86.21
2022-08-17T03:43:05.564Z,86.35
2022-08-17T03:43:36.598Z,86.15
2022-08-17T03:44:07.610Z,86.00
2022-08-17T03:44:37.452Z,86.15
2022-08-17T03:45:09.068Z,86.41
2022-08-17T03:45:39.839Z,86.10
2022-08-17T03:46:10.879Z,86.21
2022-08-17T03:46:41.189Z,85.09
2022-08-17T03:47:10.883Z,85.39
2022-08-17T03:47:42.450Z,85.39
2022-08-17T03:48:12.209Z,85.70
2022-08-17T03:48:42.958Z,85.90
2022-08-17T03:49:13.696Z,86.00
2022-08-17T03:49:45.285Z,86.31
2022-08-17T03:50:15.867Z,85.60
2022-08-17T03:50:46.400Z,85.60
2022-08-17T03:51:16.084Z,85.50
2022-08-17T03:51:47.640Z,85.19
2022-08-17T03:52:18.637Z,85.13
2022-08-17T03:52:48.315Z,84.99
2022-08-17T03:53:20.328Z,86.00
2022-08-17T03:53:50.316Z,85.70
2022-08-17T03:54:21.048Z,85.60
2022-08-17T03:54:52.609Z,85.90
2022-08-17T03:55:22.291Z,85.94
2022-08-17T03:55:54.061Z,85.70
2022-08-17T03:56:25.100Z,85.74
2022-08-17T03:56:55.621Z,86.05
2022-08-17T03:57:26.636Z,86.05
2022-08-17T03:57:56.330Z,85.84
2022-08-17T03:58:27.883Z,85.94
2022-08-17T03:58:58.617Z,85.94
2022-08-17T03:59:29.619Z,85.94
2022-08-17T04:00:00.622Z,85.94
2022-08-17T04:00:31.649Z,85.74
2022-08-17T04:01:01.450Z,86.15
2022-08-17T04:01:32.325Z,85.53
2022-08-17T04:02:03.903Z,85.64
2022-08-17T04:02:34.434Z,85.84
2022-08-17T04:03:05.436Z,85.84
2022-08-17T04:03:35.365Z,85.94
2022-08-17T04:04:06.934Z,86.15
2022-08-17T04:04:36.617Z,85.94
2022-08-17T04:05:08.137Z,85.84
2022-08-17T04:05:37.823Z,85.74
2022-08-17T04:06:09.602Z,86.05
2022-08-17T04:06:39.298Z,86.05
2022-08-17T04:07:10.003Z,85.24
2022-08-17T04:07:41.567Z,85.03
2022-08-17T04:08:12.306Z,85.44
2022-08-17T04:08:42.836Z,85.44
2022-08-17T04:09:13.860Z,85.64
2022-08-17T04:09:43.553Z,86.35
2022-08-17T04:10:15.323Z,86.55
2022-08-17T04:10:46.338Z,86.76
2022-08-17T04:11:16.853Z,86.65
2022-08-17T04:11:47.888Z,86.55
2022-08-17T04:12:18.899Z,86.55
2022-08-17T04:12:48.815Z,86.45
2022-08-17T04:13:24.846Z,86.35
2022-08-17T04:13:51.299Z,86.55
2022-08-17T04:14:21.805Z,86.59
2022-08-17T04:14:55.029Z,87.10
2022-08-17T04:15:22.468Z,87.40
2022-08-17T04:15:54.005Z,87.51
2022-08-17T04:16:25.016Z,87.40
2022-08-17T04:16:56.015Z,86.90
2022-08-17T04:17:27.064Z,86.80
2022-08-17T04:17:58.063Z,87.30
2022-08-17T04:18:29.051Z,87.30
2022-08-17T04:19:00.077Z,87.61
2022-08-17T04:19:31.105Z,87.71
2022-08-17T04:20:02.117Z,87.00
2022-08-17T04:20:31.805Z,86.90
2022-08-17T04:21:03.365Z,88.01
2022-08-17T04:21:34.358Z,87.71
2022-08-17T04:22:05.365Z,87.40
2022-08-17T04:22:36.378Z,87.20
2022-08-17T04:23:07.376Z,87.30
2022-08-17T04:23:37.060Z,86.90
2022-08-17T04:24:09.103Z,86.80
2022-08-17T04:24:40.134Z,86.90
2022-08-17T04:25:11.129Z,86.80
2022-08-17T04:25:41.083Z,86.69
2022-08-17T04:26:12.612Z,86.69
2022-08-17T04:26:54.024Z,86.49
2022-08-17T04:27:14.047Z,86.69
2022-08-17T04:27:45.078Z,86.90
2022-08-17T04:28:16.497Z,86.59
2022-08-17T04:28:47.043Z,86.45
2022-08-17T04:29:17.765Z,86.49
2022-08-17T04:29:54.547Z,86.86
2022-08-17T04:30:19.534Z,86.19
2022-08-17T04:30:49.215Z,85.94
2022-08-17T04:31:21.260Z,86.55
2022-08-17T04:31:51.220Z,86.65
2022-08-17T04:33:03.782Z,86.90
2022-08-17T04:33:04.596Z,86.69
2022-08-17T04:33:24.233Z,87.10
2022-08-17T04:33:53.920Z,87.16
2022-08-17T04:34:24.649Z,87.26
2022-08-17T04:34:56.199Z,87.26
2022-08-17T04:35:26.939Z,87.16
2022-08-17T04:35:57.478Z,87.37
2022-08-17T04:36:28.466Z,87.16
2022-08-17T04:36:58.154Z,87.67
2022-08-17T04:37:28.907Z,87.97
2022-08-17T04:38:00.670Z,87.57
2022-08-17T04:38:31.730Z,87.57
2022-08-17T04:39:02.257Z,87.87
2022-08-17T04:39:33.974Z,87.57
2022-08-17T04:40:04.562Z,87.67
2022-08-17T04:40:34.612Z,87.67
2022-08-17T04:41:05.335Z,87.77
2022-08-17T04:41:36.343Z,87.87
2022-08-17T04:42:07.066Z,86.86
2022-08-17T04:42:38.064Z,86.96
2022-08-17T04:43:09.091Z,87.16
2022-08-17T04:43:39.607Z,86.65
2022-08-17T04:44:10.624Z,86.86
2022-08-17T04:44:40.306Z,86.96
2022-08-17T04:45:12.361Z,86.86
2022-08-17T04:45:54.840Z,86.86
2022-08-17T04:46:15.110Z,86.76
2022-08-17T04:46:45.060Z,86.96
2022-08-17T04:47:16.065Z,86.96
2022-08-17T04:47:46.835Z,86.76
2022-08-17T04:48:17.322Z,86.45
2022-08-17T04:48:47.039Z,86.45
2022-08-17T04:49:18.618Z,86.55
2022-08-17T04:49:49.136Z,86.45
2022-08-17T04:50:19.977Z,86.86
2022-08-17T04:50:49.717Z,86.35
2022-08-17T04:51:21.236Z,86.25
2022-08-17T04:51:55.719Z,86.31
2022-08-17T04:52:32.264Z,86.21
2022-08-17T04:52:53.791Z,86.35
2022-08-17T04:53:23.559Z,86.00
2022-08-17T04:53:55.597Z,86.10
2022-08-17T04:54:26.612Z,85.80
2022-08-17T04:54:57.629Z,85.80
2022-08-17T04:55:28.149Z,85.80
2022-08-17T04:55:58.881Z,86.10
2022-08-17T04:56:28.570Z,86.21
2022-08-17T04:57:00.408Z,86.41
2022-08-17T04:57:30.094Z,86.82
2022-08-17T04:58:01.886Z,86.41
2022-08-17T04:58:32.883Z,86.31
2022-08-17T04:59:03.940Z,86.41
2022-08-17T04:59:34.467Z,86.91
2022-08-17T05:00:04.977Z,86.61
2022-08-17T05:00:35.993Z,86.10
2022-08-17T05:01:07.119Z,86.51
2022-08-17T05:01:37.697Z,86.31
2022-08-17T05:02:08.199Z,86.61
2022-08-17T05:02:39.230Z,86.82
2022-08-17T05:03:09.951Z,87.12
2022-08-17T05:03:39.632Z,86.71
2022-08-17T05:04:21.456Z,87.02
2022-08-17T05:04:41.932Z,86.71
2022-08-17T05:05:12.957Z,87.02
2022-08-17T05:05:43.946Z,86.31
2022-08-17T05:06:14.879Z,85.90
2022-08-17T05:06:44.566Z,86.07
2022-08-17T05:07:19.830Z,86.07
2022-08-17T05:07:46.842Z,86.68
2022-08-17T05:08:17.566Z,86.77
2022-08-17T05:08:47.252Z,86.88
2022-08-17T05:09:19.300Z,86.98
2022-08-17T05:09:50.275Z,86.57
2022-08-17T05:10:21.266Z,86.88
2022-08-17T05:10:52.261Z,86.68
2022-08-17T05:11:23.292Z,86.77
2022-08-17T05:11:53.793Z,87.18
2022-08-17T05:12:23.406Z,86.16
2022-08-17T05:12:55.444Z,86.77
2022-08-17T05:13:26.437Z,86.77
2022-08-17T05:13:56.125Z,86.57
2022-08-17T05:14:33.131Z,86.98
2022-08-17T05:14:58.625Z,86.77
2022-08-17T05:15:29.621Z,86.88
2022-08-17T05:15:59.228Z,86.98
2022-08-17T05:16:29.915Z,86.77
2022-08-17T05:17:01.461Z,86.63
2022-08-17T05:17:32.431Z,87.34
2022-08-17T05:18:02.958Z,86.73
2022-08-17T05:18:33.691Z,86.43
2022-08-17T05:19:03.378Z,86.13
2022-08-17T05:19:35.415Z,86.13
2022-08-17T05:20:05.008Z,86.33
2022-08-17T05:20:36.561Z,86.63
2022-08-17T05:21:07.105Z,86.63
2022-08-17T05:21:36.799Z,86.43
2022-08-17T05:22:08.363Z,86.33
2022-08-17T05:22:39.368Z,86.43
2022-08-17T05:23:09.057Z,86.63
2022-08-17T05:23:42.667Z,86.83
2022-08-17T05:24:38.223Z,86.53
2022-08-17T05:24:53.596Z,86.43
2022-08-17T05:25:13.045Z,86.83
2022-08-17T05:25:46.768Z,87.51
2022-08-17T05:26:26.225Z,87.60
2022-08-17T05:26:45.631Z,87.60
2022-08-17T05:27:18.798Z,87.20
2022-08-17T05:27:47.163Z,87.00
2022-08-17T05:28:18.122Z,86.19
2022-08-17T05:28:48.978Z,87.00
2022-08-17T05:29:19.779Z,86.90
2022-08-17T05:29:49.465Z,87.20
2022-08-17T05:30:21.238Z,87.30
2022-08-17T05:30:52.278Z,87.40
2022-08-17T05:31:23.278Z,87.00
2022-08-17T05:31:54.282Z,87.10
2022-08-17T05:32:48.324Z,86.90
2022-08-17T05:32:55.746Z,86.49
2022-08-17T05:33:26.259Z,85.99
2022-08-17T05:33:56.792Z,85.88
2022-08-17T05:34:27.367Z,86.08
2022-08-17T05:34:57.848Z,86.05
2022-08-17T05:35:28.656Z,86.05
2022-08-17T05:35:59.182Z,86.05
2022-08-17T05:36:41.861Z,85.84
2022-08-17T05:37:00.625Z,85.94
2022-08-17T05:37:31.151Z,85.94
2022-08-17T05:38:02.163Z,86.25
2022-08-17T05:38:33.190Z,85.64
2022-08-17T05:39:04.193Z,85.64
2022-08-17T05:39:34.960Z,85.54
2022-08-17T05:40:05.598Z,85.13
2022-08-17T05:40:35.318Z,85.19
2022-08-17T05:41:06.891Z,85.39
2022-08-17T05:41:37.885Z,85.19
2022-08-17T05:42:08.893Z,85.39
2022-08-17T05:42:39.906Z,86.51
2022-08-17T05:43:10.899Z,86.21
2022-08-17T05:43:41.892Z,85.30
2022-08-17T05:44:12.906Z,85.80
2022-08-17T05:44:42.644Z,85.50
2022-08-17T05:45:14.211Z,84.99
2022-08-17T05:45:55.448Z,84.85
2022-08-17T05:46:15.920Z,84.55
2022-08-17T05:46:46.915Z,84.55
2022-08-17T05:47:17.920Z,84.65
2022-08-17T05:47:47.628Z,84.45
2022-08-17T05:48:18.373Z,84.34
2022-08-17T05:48:49.926Z,84.25
2022-08-17T05:49:20.962Z,83.94
2022-08-17T05:49:51.520Z,83.94
2022-08-17T05:50:26.952Z,84.04
2022-08-17T05:50:52.985Z,84.04
2022-08-17T05:51:24.018Z,84.31
2022-08-17T05:51:54.529Z,84.20
2022-08-17T05:52:25.051Z,84.00
2022-08-17T05:52:56.070Z,83.80
2022-08-17T05:53:26.793Z,83.80
2022-08-17T05:53:57.830Z,83.60
2022-08-17T05:54:28.837Z,82.99
2022-08-17T05:54:59.874Z,82.49
2022-08-17T05:55:29.574Z,81.54
2022-08-17T05:56:01.138Z,81.64
2022-08-17T05:56:32.152Z,81.64
2022-08-17T05:57:03.726Z,81.74
2022-08-17T05:57:33.467Z,82.14
2022-08-17T05:58:03.971Z,82.85
2022-08-17T05:58:33.657Z,82.65
2022-08-17T05:59:05.193Z,81.54
2022-08-17T05:59:34.889Z,81.13
2022-08-17T06:00:06.662Z,80.63
2022-08-17T06:00:37.696Z,81.34
2022-08-17T06:01:08.555Z,80.22
2022-08-17T06:01:39.135Z,80.29
2022-08-17T06:02:09.616Z,80.08
2022-08-17T06:02:44.175Z,80.19
2022-08-17T06:03:11.392Z,80.19
2022-08-17T06:03:42.136Z,79.79
2022-08-17T06:04:13.124Z,79.58
2022-08-17T06:04:44.122Z,80.08
2022-08-17T06:05:15.158Z,80.08
2022-08-17T06:05:45.680Z,79.79
2022-08-17T06:06:15.380Z,79.38
2022-08-17T06:06:46.917Z,79.08
2022-08-17T06:07:17.914Z,78.84
2022-08-17T06:07:48.966Z,78.53
2022-08-17T06:08:19.997Z,78.94
2022-08-17T06:08:51.733Z,79.44
2022-08-17T06:09:27.600Z,78.94
2022-08-17T06:09:52.618Z,78.23
2022-08-17T06:10:22.320Z,77.93
2022-08-17T06:10:54.131Z,77.83
2022-08-17T06:11:24.684Z,78.03
2022-08-17T06:11:55.217Z,77.53
2022-08-17T06:12:24.913Z,77.19
2022-08-17T06:12:56.466Z,77.39
2022-08-17T06:13:27.463Z,77.39
2022-08-17T06:13:58.499Z,77.59
2022-08-17T06:14:28.217Z,77.89
2022-08-17T06:14:59.762Z,77.69
2022-08-17T06:15:29.468Z,77.69
2022-08-17T06:16:01.002Z,77.19
2022-08-17T06:16:34.128Z,76.78
2022-08-17T06:17:02.585Z,76.18
2022-08-17T06:17:33.596Z,75.87
2022-08-17T06:18:04.132Z,76.58
2022-08-17T06:18:34.629Z,77.45
2022-08-17T06:19:05.622Z,77.25
2022-08-17T06:19:36.664Z,76.75
2022-08-17T06:20:07.161Z,75.84
2022-08-17T06:20:37.913Z,76.04
2022-08-17T06:21:08.459Z,75.74
2022-08-17T06:21:38.138Z,75.34
2022-08-17T06:22:09.668Z,75.63
2022-08-17T06:22:40.681Z,75.74
2022-08-17T06:23:11.692Z,76.54
2022-08-17T06:23:42.682Z,76.64
2022-08-17T06:24:12.377Z,76.24
2022-08-17T06:24:43.967Z,76.24
2022-08-17T06:25:14.458Z,75.63
2022-08-17T06:25:45.472Z,75.43
2022-08-17T06:26:16.474Z,75.54
2022-08-17T06:26:47.499Z,75.63
2022-08-17T06:27:18.521Z,75.74
2022-08-17T06:27:53.354Z,75.94
2022-08-17T06:28:20.225Z,75.84
2022-08-17T06:28:51.219Z,75.80
2022-08-17T06:29:22.212Z,75.50
2022-08-17T06:29:51.915Z,75.10
2022-08-17T06:30:23.498Z,75.20
2022-08-17T06:30:59.513Z,76.00
2022-08-17T06:31:25.256Z,75.90
2022-08-17T06:31:54.968Z,75.60
2022-08-17T06:32:26.489Z,75.50
2022-08-17T06:32:56.442Z,75.50
2022-08-17T06:33:28.010Z,75.90
2022-08-17T06:33:59.004Z,75.40
2022-08-17T06:34:29.995Z,75.70
2022-08-17T06:34:59.707Z,75.70
2022-08-17T06:35:31.992Z,75.30